sensor_id;sensor_type;location;lat;lon;timestamp;P1;durP1;ratioP1;P2;durP2;ratioP2
1885;SDS011;943;51.568;6.998;2023-03-31T00:01:11;8.30;;;2.50;;
1885;SDS011;943;51.568;6.998;2023-03-31T00:03:39;14.70;;;2.40;;
1885;SDS011;943;51.568;6.998;2023-03-31T00:06:11;9.70;;;2.70;;
1885;SDS011;943;51.568;6.998;2023-03-31T00:08:45;7.30;;;2.10;;
1885;SDS011;943;51.568;6.998;2023-03-31T00:11:18;5.90;;;2.03;;
1885;SDS011;943;51.568;6.998;2023-03-31T00:13:49;5.17;;;1.90;;
1885;SDS011;943;51.568;6.998;2023-03-31T00:16:17;5.60;;;2.57;;
1885;SDS011;943;51.568;6.998;2023-03-31T00:18:45;4.77;;;1.67;;
1885;SDS011;943;51.568;6.998;2023-03-31T00:21:18;5.13;;;2.03;;
1885;SDS011;943;51.568;6.998;2023-03-31T00:23:55;8.10;;;2.70;;
1885;SDS011;943;51.568;6.998;2023-03-31T00:26:32;6.27;;;2.23;;
1885;SDS011;943;51.568;6.998;2023-03-31T00:29:02;6.73;;;1.87;;
1885;SDS011;943;51.568;6.998;2023-03-31T00:31:34;7.10;;;2.07;;
1885;SDS011;943;51.568;6.998;2023-03-31T00:34:04;8.37;;;3.53;;
1885;SDS011;943;51.568;6.998;2023-03-31T00:36:34;7.90;;;2.20;;
1885;SDS011;943;51.568;6.998;2023-03-31T00:39:11;5.93;;;1.93;;
1885;SDS011;943;51.568;6.998;2023-03-31T00:41:44;4.17;;;1.93;;
1885;SDS011;943;51.568;6.998;2023-03-31T00:49:47;5.87;;;1.83;;
1885;SDS011;943;51.568;6.998;2023-03-31T00:55:07;6.00;;;2.13;;
1885;SDS011;943;51.568;6.998;2023-03-31T00:57:44;6.40;;;1.73;;
1885;SDS011;943;51.568;6.998;2023-03-31T01:00:14;7.27;;;1.60;;
1885;SDS011;943;51.568;6.998;2023-03-31T01:02:53;12.70;;;1.90;;
1885;SDS011;943;51.568;6.998;2023-03-31T01:05:43;10.13;;;2.43;;
1885;SDS011;943;51.568;6.998;2023-03-31T01:08:24;6.37;;;1.90;;
1885;SDS011;943;51.568;6.998;2023-03-31T01:10:55;4.33;;;3.00;;
1885;SDS011;943;51.568;6.998;2023-03-31T01:13:30;6.73;;;2.07;;
1885;SDS011;943;51.568;6.998;2023-03-31T01:16:02;4.60;;;1.70;;
1885;SDS011;943;51.568;6.998;2023-03-31T01:18:31;10.77;;;2.83;;
1885;SDS011;943;51.568;6.998;2023-03-31T01:27:52;6.53;;;1.90;;
1885;SDS011;943;51.568;6.998;2023-03-31T01:35:00;3.70;;;1.80;;
1885;SDS011;943;51.568;6.998;2023-03-31T01:38:08;4.73;;;1.73;;
1885;SDS011;943;51.568;6.998;2023-03-31T01:41:44;6.20;;;2.13;;
1885;SDS011;943;51.568;6.998;2023-03-31T01:50:59;6.23;;;2.63;;
1885;SDS011;943;51.568;6.998;2023-03-31T01:53:58;9.03;;;3.37;;
1885;SDS011;943;51.568;6.998;2023-03-31T01:57:33;9.90;;;2.53;;
1885;SDS011;943;51.568;6.998;2023-03-31T02:00:24;6.40;;;3.00;;
1885;SDS011;943;51.568;6.998;2023-03-31T02:03:09;8.97;;;2.43;;
1885;SDS011;943;51.568;6.998;2023-03-31T02:05:51;7.20;;;2.30;;
1885;SDS011;943;51.568;6.998;2023-03-31T02:08:37;11.03;;;2.30;;
1885;SDS011;943;51.568;6.998;2023-03-31T02:11:19;5.20;;;2.47;;
1885;SDS011;943;51.568;6.998;2023-03-31T02:13:50;9.17;;;2.70;;
1885;SDS011;943;51.568;6.998;2023-03-31T02:16:27;9.40;;;2.93;;
1885;SDS011;943;51.568;6.998;2023-03-31T02:19:03;7.33;;;2.80;;
1885;SDS011;943;51.568;6.998;2023-03-31T02:21:36;9.10;;;3.37;;
1885;SDS011;943;51.568;6.998;2023-03-31T02:24:08;5.83;;;2.07;;
1885;SDS011;943;51.568;6.998;2023-03-31T02:26:45;6.13;;;2.40;;
1885;SDS011;943;51.568;6.998;2023-03-31T02:29:32;11.20;;;3.40;;
1885;SDS011;943;51.568;6.998;2023-03-31T02:35:10;10.40;;;4.37;;
1885;SDS011;943;51.568;6.998;2023-03-31T02:37:45;7.30;;;3.20;;
1885;SDS011;943;51.568;6.998;2023-03-31T02:40:16;7.03;;;2.63;;
1885;SDS011;943;51.568;6.998;2023-03-31T02:42:48;13.17;;;3.53;;
1885;SDS011;943;51.568;6.998;2023-03-31T02:45:35;15.23;;;3.27;;
1885;SDS011;943;51.568;6.998;2023-03-31T02:58:25;6.77;;;3.27;;
1885;SDS011;943;51.568;6.998;2023-03-31T03:12:23;9.10;;;3.60;;
1885;SDS011;943;51.568;6.998;2023-03-31T03:17:45;13.93;;;3.73;;
1885;SDS011;943;51.568;6.998;2023-03-31T03:20:16;8.30;;;3.60;;
1885;SDS011;943;51.568;6.998;2023-03-31T03:22:47;9.70;;;3.57;;
1885;SDS011;943;51.568;6.998;2023-03-31T03:25:15;9.07;;;3.27;;
1885;SDS011;943;51.568;6.998;2023-03-31T03:27:45;14.10;;;4.50;;
1885;SDS011;943;51.568;6.998;2023-03-31T03:30:13;11.20;;;3.73;;
1885;SDS011;943;51.568;6.998;2023-03-31T03:32:41;10.20;;;3.47;;
1885;SDS011;943;51.568;6.998;2023-03-31T03:35:10;6.40;;;2.80;;
1885;SDS011;943;51.568;6.998;2023-03-31T03:37:38;10.63;;;3.60;;
1885;SDS011;943;51.568;6.998;2023-03-31T03:40:06;20.93;;;4.33;;
1885;SDS011;943;51.568;6.998;2023-03-31T03:42:35;15.40;;;4.60;;
1885;SDS011;943;51.568;6.998;2023-03-31T03:45:04;8.87;;;3.87;;
1885;SDS011;943;51.568;6.998;2023-03-31T03:47:33;11.93;;;4.00;;
1885;SDS011;943;51.568;6.998;2023-03-31T03:50:02;11.30;;;3.50;;
1885;SDS011;943;51.568;6.998;2023-03-31T03:52:31;17.93;;;3.33;;
1885;SDS011;943;51.568;6.998;2023-03-31T03:54:59;8.90;;;3.10;;
1885;SDS011;943;51.568;6.998;2023-03-31T03:57:27;9.13;;;4.03;;
1885;SDS011;943;51.568;6.998;2023-03-31T03:59:55;10.57;;;3.63;;
1885;SDS011;943;51.568;6.998;2023-03-31T04:02:23;16.83;;;4.10;;
1885;SDS011;943;51.568;6.998;2023-03-31T04:04:53;12.00;;;3.73;;
1885;SDS011;943;51.568;6.998;2023-03-31T04:07:21;10.13;;;3.83;;
1885;SDS011;943;51.568;6.998;2023-03-31T04:09:49;12.67;;;3.97;;
1885;SDS011;943;51.568;6.998;2023-03-31T04:12:16;12.83;;;4.30;;
1885;SDS011;943;51.568;6.998;2023-03-31T04:14:44;11.67;;;3.53;;
1885;SDS011;943;51.568;6.998;2023-03-31T04:17:12;9.97;;;3.40;;
1885;SDS011;943;51.568;6.998;2023-03-31T04:19:41;10.07;;;3.40;;
1885;SDS011;943;51.568;6.998;2023-03-31T04:22:09;12.67;;;3.87;;
1885;SDS011;943;51.568;6.998;2023-03-31T04:24:37;12.30;;;3.63;;
1885;SDS011;943;51.568;6.998;2023-03-31T04:27:04;10.93;;;3.97;;
1885;SDS011;943;51.568;6.998;2023-03-31T04:29:32;13.60;;;3.90;;
1885;SDS011;943;51.568;6.998;2023-03-31T04:32:02;8.97;;;3.37;;
1885;SDS011;943;51.568;6.998;2023-03-31T04:34:31;8.93;;;3.43;;
1885;SDS011;943;51.568;6.998;2023-03-31T04:37:01;9.20;;;3.03;;
1885;SDS011;943;51.568;6.998;2023-03-31T04:39:30;12.43;;;3.40;;
1885;SDS011;943;51.568;6.998;2023-03-31T04:41:58;11.00;;;3.17;;
1885;SDS011;943;51.568;6.998;2023-03-31T04:44:27;9.20;;;3.03;;
1885;SDS011;943;51.568;6.998;2023-03-31T04:46:56;8.27;;;3.00;;
1885;SDS011;943;51.568;6.998;2023-03-31T04:49:29;13.53;;;4.20;;
1885;SDS011;943;51.568;6.998;2023-03-31T04:51:59;10.70;;;3.80;;
1885;SDS011;943;51.568;6.998;2023-03-31T04:54:26;11.43;;;4.37;;
1885;SDS011;943;51.568;6.998;2023-03-31T04:56:54;7.10;;;3.27;;
1885;SDS011;943;51.568;6.998;2023-03-31T04:59:22;9.17;;;3.40;;
1885;SDS011;943;51.568;6.998;2023-03-31T05:01:49;9.27;;;4.00;;
1885;SDS011;943;51.568;6.998;2023-03-31T05:04:17;11.93;;;4.43;;
1885;SDS011;943;51.568;6.998;2023-03-31T05:06:45;8.30;;;3.50;;
1885;SDS011;943;51.568;6.998;2023-03-31T05:09:13;10.83;;;2.87;;
1885;SDS011;943;51.568;6.998;2023-03-31T05:11:41;9.33;;;3.30;;
1885;SDS011;943;51.568;6.998;2023-03-31T05:14:09;10.33;;;3.63;;
1885;SDS011;943;51.568;6.998;2023-03-31T05:16:36;4.30;;;2.20;;
1885;SDS011;943;51.568;6.998;2023-03-31T05:19:04;7.43;;;2.53;;
1885;SDS011;943;51.568;6.998;2023-03-31T05:21:32;4.90;;;2.00;;
1885;SDS011;943;51.568;6.998;2023-03-31T05:24:00;7.97;;;1.63;;
1885;SDS011;943;51.568;6.998;2023-03-31T05:26:29;6.83;;;2.33;;
1885;SDS011;943;51.568;6.998;2023-03-31T05:28:57;8.30;;;2.00;;
1885;SDS011;943;51.568;6.998;2023-03-31T05:31:24;5.50;;;1.73;;
1885;SDS011;943;51.568;6.998;2023-03-31T05:33:52;6.17;;;2.40;;
1885;SDS011;943;51.568;6.998;2023-03-31T05:36:20;9.30;;;2.63;;
1885;SDS011;943;51.568;6.998;2023-03-31T05:38:49;4.57;;;1.93;;
1885;SDS011;943;51.568;6.998;2023-03-31T05:41:18;5.87;;;2.30;;
1885;SDS011;943;51.568;6.998;2023-03-31T05:43:46;4.90;;;1.70;;
1885;SDS011;943;51.568;6.998;2023-03-31T05:46:14;6.17;;;2.03;;
1885;SDS011;943;51.568;6.998;2023-03-31T05:48:44;4.50;;;1.77;;
1885;SDS011;943;51.568;6.998;2023-03-31T05:51:11;7.77;;;2.43;;
1885;SDS011;943;51.568;6.998;2023-03-31T05:53:39;11.40;;;1.80;;
1885;SDS011;943;51.568;6.998;2023-03-31T05:56:07;8.00;;;1.60;;
1885;SDS011;943;51.568;6.998;2023-03-31T05:58:36;5.93;;;1.83;;
1885;SDS011;943;51.568;6.998;2023-03-31T06:01:09;3.47;;;1.43;;
1885;SDS011;943;51.568;6.998;2023-03-31T06:03:47;7.00;;;2.40;;
1885;SDS011;943;51.568;6.998;2023-03-31T06:06:16;3.20;;;2.10;;
1885;SDS011;943;51.568;6.998;2023-03-31T06:08:45;6.60;;;2.57;;
1885;SDS011;943;51.568;6.998;2023-03-31T06:11:15;7.30;;;2.00;;
1885;SDS011;943;51.568;6.998;2023-03-31T06:13:48;5.13;;;2.40;;
1885;SDS011;943;51.568;6.998;2023-03-31T06:16:16;5.67;;;1.67;;
1885;SDS011;943;51.568;6.998;2023-03-31T06:18:45;7.87;;;1.50;;
1885;SDS011;943;51.568;6.998;2023-03-31T06:21:14;3.30;;;1.53;;
1885;SDS011;943;51.568;6.998;2023-03-31T06:23:44;9.30;;;3.23;;
1885;SDS011;943;51.568;6.998;2023-03-31T06:26:16;2.77;;;1.57;;
1885;SDS011;943;51.568;6.998;2023-03-31T06:28:45;6.97;;;2.23;;
1885;SDS011;943;51.568;6.998;2023-03-31T06:31:17;7.30;;;2.17;;
1885;SDS011;943;51.568;6.998;2023-03-31T06:33:50;5.40;;;1.90;;
1885;SDS011;943;51.568;6.998;2023-03-31T06:36:19;5.40;;;2.10;;
1885;SDS011;943;51.568;6.998;2023-03-31T06:38:48;7.27;;;2.10;;
1885;SDS011;943;51.568;6.998;2023-03-31T06:41:17;6.90;;;2.10;;
1885;SDS011;943;51.568;6.998;2023-03-31T06:43:46;6.27;;;2.43;;
1885;SDS011;943;51.568;6.998;2023-03-31T06:46:16;9.90;;;4.00;;
1885;SDS011;943;51.568;6.998;2023-03-31T06:48:44;8.73;;;2.93;;
1885;SDS011;943;51.568;6.998;2023-03-31T06:51:12;5.03;;;2.43;;
1885;SDS011;943;51.568;6.998;2023-03-31T06:53:41;5.13;;;1.97;;
1885;SDS011;943;51.568;6.998;2023-03-31T06:56:09;6.60;;;1.80;;
1885;SDS011;943;51.568;6.998;2023-03-31T06:58:37;11.93;;;3.87;;
1885;SDS011;943;51.568;6.998;2023-03-31T07:01:05;6.73;;;1.70;;
1885;SDS011;943;51.568;6.998;2023-03-31T07:03:33;4.07;;;2.27;;
1885;SDS011;943;51.568;6.998;2023-03-31T07:06:02;6.93;;;2.70;;
1885;SDS011;943;51.568;6.998;2023-03-31T07:08:29;5.43;;;2.50;;
1885;SDS011;943;51.568;6.998;2023-03-31T07:10:59;4.67;;;2.67;;
1885;SDS011;943;51.568;6.998;2023-03-31T07:13:28;6.37;;;3.50;;
1885;SDS011;943;51.568;6.998;2023-03-31T07:15:56;10.53;;;3.70;;
1885;SDS011;943;51.568;6.998;2023-03-31T07:18:24;5.60;;;2.53;;
1885;SDS011;943;51.568;6.998;2023-03-31T07:21:00;7.43;;;2.70;;
1885;SDS011;943;51.568;6.998;2023-03-31T07:23:34;5.17;;;2.60;;
1885;SDS011;943;51.568;6.998;2023-03-31T07:26:04;5.53;;;2.20;;
1885;SDS011;943;51.568;6.998;2023-03-31T07:28:32;4.87;;;2.70;;
1885;SDS011;943;51.568;6.998;2023-03-31T07:31:00;6.67;;;2.50;;
1885;SDS011;943;51.568;6.998;2023-03-31T07:33:28;4.63;;;2.60;;
1885;SDS011;943;51.568;6.998;2023-03-31T07:35:56;10.13;;;2.77;;
1885;SDS011;943;51.568;6.998;2023-03-31T07:38:39;6.90;;;2.50;;
1885;SDS011;943;51.568;6.998;2023-03-31T07:41:12;8.30;;;2.93;;
1885;SDS011;943;51.568;6.998;2023-03-31T07:43:46;11.40;;;2.97;;
1885;SDS011;943;51.568;6.998;2023-03-31T07:46:17;6.23;;;2.20;;
1885;SDS011;943;51.568;6.998;2023-03-31T07:48:54;6.27;;;2.37;;
1885;SDS011;943;51.568;6.998;2023-03-31T07:51:25;5.13;;;3.10;;
1885;SDS011;943;51.568;6.998;2023-03-31T07:53:53;7.97;;;2.77;;
1885;SDS011;943;51.568;6.998;2023-03-31T07:56:22;5.13;;;2.70;;
1885;SDS011;943;51.568;6.998;2023-03-31T07:58:51;5.43;;;3.07;;
1885;SDS011;943;51.568;6.998;2023-03-31T08:01:23;10.77;;;3.60;;
1885;SDS011;943;51.568;6.998;2023-03-31T08:03:52;6.93;;;3.20;;
1885;SDS011;943;51.568;6.998;2023-03-31T08:06:22;8.37;;;2.50;;
1885;SDS011;943;51.568;6.998;2023-03-31T08:08:53;5.27;;;2.90;;
1885;SDS011;943;51.568;6.998;2023-03-31T08:11:22;8.40;;;3.73;;
1885;SDS011;943;51.568;6.998;2023-03-31T08:13:52;11.23;;;3.10;;
1885;SDS011;943;51.568;6.998;2023-03-31T08:16:20;8.87;;;2.93;;
1885;SDS011;943;51.568;6.998;2023-03-31T08:18:48;4.23;;;2.27;;
1885;SDS011;943;51.568;6.998;2023-03-31T08:21:16;7.33;;;3.20;;
1885;SDS011;943;51.568;6.998;2023-03-31T08:23:44;6.43;;;2.63;;
1885;SDS011;943;51.568;6.998;2023-03-31T08:26:15;7.13;;;2.30;;
1885;SDS011;943;51.568;6.998;2023-03-31T08:28:47;4.13;;;2.70;;
1885;SDS011;943;51.568;6.998;2023-03-31T08:31:16;10.90;;;3.17;;
1885;SDS011;943;51.568;6.998;2023-03-31T08:33:52;5.17;;;2.37;;
1885;SDS011;943;51.568;6.998;2023-03-31T08:36:21;5.57;;;2.77;;
1885;SDS011;943;51.568;6.998;2023-03-31T08:38:49;8.50;;;2.77;;
1885;SDS011;943;51.568;6.998;2023-03-31T08:44:55;5.53;;;2.33;;
1885;SDS011;943;51.568;6.998;2023-03-31T08:47:54;6.17;;;3.50;;
1885;SDS011;943;51.568;6.998;2023-03-31T08:50:46;5.13;;;2.97;;
1885;SDS011;943;51.568;6.998;2023-03-31T08:53:35;7.57;;;2.17;;
1885;SDS011;943;51.568;6.998;2023-03-31T08:56:15;8.83;;;2.83;;
1885;SDS011;943;51.568;6.998;2023-03-31T08:58:49;7.10;;;3.10;;
1885;SDS011;943;51.568;6.998;2023-03-31T09:19:54;9.50;;;2.80;;
1885;SDS011;943;51.568;6.998;2023-03-31T09:22:50;9.47;;;3.53;;
1885;SDS011;943;51.568;6.998;2023-03-31T09:25:44;3.80;;;2.07;;
1885;SDS011;943;51.568;6.998;2023-03-31T09:28:25;9.77;;;3.60;;
1885;SDS011;943;51.568;6.998;2023-03-31T09:31:12;6.40;;;3.10;;
1885;SDS011;943;51.568;6.998;2023-03-31T09:33:46;8.80;;;3.50;;
1885;SDS011;943;51.568;6.998;2023-03-31T09:36:21;9.93;;;4.00;;
1885;SDS011;943;51.568;6.998;2023-03-31T09:38:49;5.67;;;3.40;;
1885;SDS011;943;51.568;6.998;2023-03-31T09:41:17;7.50;;;4.40;;
1885;SDS011;943;51.568;6.998;2023-03-31T09:43:47;7.40;;;2.67;;
1885;SDS011;943;51.568;6.998;2023-03-31T09:46:25;8.23;;;3.50;;
1885;SDS011;943;51.568;6.998;2023-03-31T09:49:03;4.80;;;2.30;;
1885;SDS011;943;51.568;6.998;2023-03-31T09:51:44;10.93;;;2.80;;
1885;SDS011;943;51.568;6.998;2023-03-31T09:54:53;7.37;;;2.40;;
1885;SDS011;943;51.568;6.998;2023-03-31T09:57:32;13.83;;;3.43;;
1885;SDS011;943;51.568;6.998;2023-03-31T10:02:49;9.20;;;3.40;;
1885;SDS011;943;51.568;6.998;2023-03-31T10:05:30;7.50;;;3.70;;
1885;SDS011;943;51.568;6.998;2023-03-31T10:11:06;11.90;;;4.00;;
1885;SDS011;943;51.568;6.998;2023-03-31T10:13:48;7.17;;;3.07;;
1885;SDS011;943;51.568;6.998;2023-03-31T10:16:55;12.93;;;3.87;;
1885;SDS011;943;51.568;6.998;2023-03-31T10:19:25;6.93;;;3.93;;
1885;SDS011;943;51.568;6.998;2023-03-31T10:22:01;7.67;;;3.73;;
1885;SDS011;943;51.568;6.998;2023-03-31T10:24:56;7.63;;;3.40;;
1885;SDS011;943;51.568;6.998;2023-03-31T10:27:54;8.20;;;3.20;;
1885;SDS011;943;51.568;6.998;2023-03-31T10:30:25;6.40;;;3.40;;
1885;SDS011;943;51.568;6.998;2023-03-31T10:33:10;9.33;;;3.83;;
1885;SDS011;943;51.568;6.998;2023-03-31T10:36:06;10.40;;;2.73;;
1885;SDS011;943;51.568;6.998;2023-03-31T10:38:53;11.23;;;3.63;;
1885;SDS011;943;51.568;6.998;2023-03-31T10:41:26;13.27;;;4.10;;
1885;SDS011;943;51.568;6.998;2023-03-31T10:43:57;13.00;;;3.13;;
1885;SDS011;943;51.568;6.998;2023-03-31T10:46:46;11.77;;;3.40;;
1885;SDS011;943;51.568;6.998;2023-03-31T10:51:54;7.93;;;3.37;;
1885;SDS011;943;51.568;6.998;2023-03-31T10:54:29;11.80;;;3.10;;
1885;SDS011;943;51.568;6.998;2023-03-31T10:56:58;12.33;;;3.87;;
1885;SDS011;943;51.568;6.998;2023-03-31T11:02:51;14.93;;;3.83;;
1885;SDS011;943;51.568;6.998;2023-03-31T11:12:28;11.37;;;3.37;;
1885;SDS011;943;51.568;6.998;2023-03-31T11:15:28;5.97;;;2.80;;
1885;SDS011;943;51.568;6.998;2023-03-31T11:21:49;8.33;;;2.93;;
1885;SDS011;943;51.568;6.998;2023-03-31T11:25:12;7.43;;;3.50;;
1885;SDS011;943;51.568;6.998;2023-03-31T11:31:41;7.03;;;2.00;;
1885;SDS011;943;51.568;6.998;2023-03-31T11:42:26;6.40;;;1.60;;
1885;SDS011;943;51.568;6.998;2023-03-31T11:45:19;6.77;;;1.40;;
1885;SDS011;943;51.568;6.998;2023-03-31T11:48:05;12.43;;;1.63;;
1885;SDS011;943;51.568;6.998;2023-03-31T11:50:59;8.23;;;1.80;;
1885;SDS011;943;51.568;6.998;2023-03-31T11:53:40;7.13;;;2.00;;
1885;SDS011;943;51.568;6.998;2023-03-31T11:56:12;4.70;;;1.43;;
1885;SDS011;943;51.568;6.998;2023-03-31T11:58:46;3.93;;;1.53;;
1885;SDS011;943;51.568;6.998;2023-03-31T12:01:41;6.60;;;1.83;;
1885;SDS011;943;51.568;6.998;2023-03-31T12:04:32;6.47;;;2.10;;
1885;SDS011;943;51.568;6.998;2023-03-31T12:10:30;6.80;;;1.30;;
1885;SDS011;943;51.568;6.998;2023-03-31T12:13:25;8.93;;;1.93;;
1885;SDS011;943;51.568;6.998;2023-03-31T12:16:26;8.63;;;2.60;;
1885;SDS011;943;51.568;6.998;2023-03-31T12:22:28;7.17;;;1.90;;
1885;SDS011;943;51.568;6.998;2023-03-31T12:26:00;6.50;;;2.13;;
1885;SDS011;943;51.568;6.998;2023-03-31T12:32:18;11.03;;;2.10;;
1885;SDS011;943;51.568;6.998;2023-03-31T12:43:58;5.00;;;1.67;;
1885;SDS011;943;51.568;6.998;2023-03-31T12:47:36;9.27;;;2.07;;
1885;SDS011;943;51.568;6.998;2023-03-31T12:50:20;9.07;;;2.40;;
1885;SDS011;943;51.568;6.998;2023-03-31T12:57:22;7.00;;;2.03;;
1885;SDS011;943;51.568;6.998;2023-03-31T13:00:35;12.10;;;2.73;;
1885;SDS011;943;51.568;6.998;2023-03-31T13:09:04;12.43;;;2.90;;
1885;SDS011;943;51.568;6.998;2023-03-31T13:12:19;7.43;;;2.30;;
1885;SDS011;943;51.568;6.998;2023-03-31T13:14:54;7.50;;;2.43;;
1885;SDS011;943;51.568;6.998;2023-03-31T13:17:53;7.93;;;2.30;;
1885;SDS011;943;51.568;6.998;2023-03-31T13:20:36;6.00;;;2.17;;
1885;SDS011;943;51.568;6.998;2023-03-31T13:23:18;5.60;;;2.20;;
1885;SDS011;943;51.568;6.998;2023-03-31T13:25:52;4.60;;;2.00;;
1885;SDS011;943;51.568;6.998;2023-03-31T13:28:26;12.30;;;3.00;;
1885;SDS011;943;51.568;6.998;2023-03-31T13:31:06;6.83;;;2.33;;
1885;SDS011;943;51.568;6.998;2023-03-31T13:33:42;10.10;;;2.30;;
1885;SDS011;943;51.568;6.998;2023-03-31T13:36:28;5.97;;;2.40;;
1885;SDS011;943;51.568;6.998;2023-03-31T13:52:13;5.77;;;2.90;;
1885;SDS011;943;51.568;6.998;2023-03-31T13:56:25;14.07;;;3.20;;
1885;SDS011;943;51.568;6.998;2023-03-31T13:59:40;5.40;;;2.00;;
1885;SDS011;943;51.568;6.998;2023-03-31T14:02:55;7.90;;;2.60;;
1885;SDS011;943;51.568;6.998;2023-03-31T14:08:51;5.83;;;1.53;;
1885;SDS011;943;51.568;6.998;2023-03-31T14:11:38;8.37;;;1.70;;
1885;SDS011;943;51.568;6.998;2023-03-31T14:14:10;10.30;;;1.77;;
1885;SDS011;943;51.568;6.998;2023-03-31T14:16:45;6.10;;;1.83;;
1885;SDS011;943;51.568;6.998;2023-03-31T14:29:39;7.60;;;1.93;;
1885;SDS011;943;51.568;6.998;2023-03-31T14:32:54;6.53;;;2.10;;
1885;SDS011;943;51.568;6.998;2023-03-31T14:36:09;6.17;;;1.73;;
1885;SDS011;943;51.568;6.998;2023-03-31T14:39:27;8.53;;;2.50;;
1885;SDS011;943;51.568;6.998;2023-03-31T14:42:15;8.60;;;2.40;;
1885;SDS011;943;51.568;6.998;2023-03-31T14:45:05;13.73;;;2.43;;
1885;SDS011;943;51.568;6.998;2023-03-31T14:47:55;8.40;;;2.00;;
1885;SDS011;943;51.568;6.998;2023-03-31T14:50:44;7.40;;;1.93;;
1885;SDS011;943;51.568;6.998;2023-03-31T14:53:14;6.33;;;2.10;;
1885;SDS011;943;51.568;6.998;2023-03-31T14:55:52;6.40;;;2.30;;
1885;SDS011;943;51.568;6.998;2023-03-31T14:58:55;7.37;;;3.30;;
1885;SDS011;943;51.568;6.998;2023-03-31T15:01:24;6.40;;;1.80;;
1885;SDS011;943;51.568;6.998;2023-03-31T15:04:07;5.80;;;1.43;;
1885;SDS011;943;51.568;6.998;2023-03-31T15:06:49;5.33;;;1.63;;
1885;SDS011;943;51.568;6.998;2023-03-31T15:09:23;7.90;;;2.10;;
1885;SDS011;943;51.568;6.998;2023-03-31T15:12:01;4.60;;;1.43;;
1885;SDS011;943;51.568;6.998;2023-03-31T15:14:47;10.87;;;2.20;;
1885;SDS011;943;51.568;6.998;2023-03-31T15:17:30;5.00;;;1.83;;
1885;SDS011;943;51.568;6.998;2023-03-31T15:20:23;9.13;;;2.73;;
1885;SDS011;943;51.568;6.998;2023-03-31T15:23:16;7.57;;;2.17;;
1885;SDS011;943;51.568;6.998;2023-03-31T15:25:57;5.33;;;1.80;;
1885;SDS011;943;51.568;6.998;2023-03-31T15:28:39;10.67;;;2.63;;
1885;SDS011;943;51.568;6.998;2023-03-31T15:31:27;10.63;;;2.20;;
1885;SDS011;943;51.568;6.998;2023-03-31T15:33:57;7.77;;;2.10;;
1885;SDS011;943;51.568;6.998;2023-03-31T15:36:26;7.20;;;3.03;;
1885;SDS011;943;51.568;6.998;2023-03-31T15:38:57;8.60;;;2.30;;
1885;SDS011;943;51.568;6.998;2023-03-31T15:41:28;6.20;;;2.07;;
1885;SDS011;943;51.568;6.998;2023-03-31T15:44:07;9.23;;;2.60;;
1885;SDS011;943;51.568;6.998;2023-03-31T15:52:45;4.50;;;1.87;;
1885;SDS011;943;51.568;6.998;2023-03-31T15:57:55;5.73;;;2.03;;
1885;SDS011;943;51.568;6.998;2023-03-31T16:03:23;5.13;;;1.53;;
1885;SDS011;943;51.568;6.998;2023-03-31T16:06:05;6.00;;;1.60;;
1885;SDS011;943;51.568;6.998;2023-03-31T16:09:47;3.80;;;1.27;;
1885;SDS011;943;51.568;6.998;2023-03-31T16:12:35;6.83;;;1.97;;
1885;SDS011;943;51.568;6.998;2023-03-31T16:15:19;5.23;;;1.60;;
1885;SDS011;943;51.568;6.998;2023-03-31T16:18:27;3.97;;;1.40;;
1885;SDS011;943;51.568;6.998;2023-03-31T16:21:04;5.37;;;2.90;;
1885;SDS011;943;51.568;6.998;2023-03-31T16:23:36;8.63;;;2.57;;
1885;SDS011;943;51.568;6.998;2023-03-31T16:26:07;10.87;;;1.80;;
1885;SDS011;943;51.568;6.998;2023-03-31T16:28:35;5.30;;;1.60;;
1885;SDS011;943;51.568;6.998;2023-03-31T16:31:04;3.53;;;1.80;;
1885;SDS011;943;51.568;6.998;2023-03-31T16:34:10;2.40;;;1.30;;
1885;SDS011;943;51.568;6.998;2023-03-31T16:36:38;4.87;;;1.37;;
1885;SDS011;943;51.568;6.998;2023-03-31T16:39:06;4.53;;;1.33;;
1885;SDS011;943;51.568;6.998;2023-03-31T16:41:35;3.63;;;1.30;;
1885;SDS011;943;51.568;6.998;2023-03-31T16:44:07;8.23;;;1.80;;
1885;SDS011;943;51.568;6.998;2023-03-31T16:46:35;5.17;;;1.90;;
1885;SDS011;943;51.568;6.998;2023-03-31T16:49:03;3.80;;;1.20;;
1885;SDS011;943;51.568;6.998;2023-03-31T16:51:31;5.87;;;2.10;;
1885;SDS011;943;51.568;6.998;2023-03-31T16:53:59;6.73;;;1.73;;
1885;SDS011;943;51.568;6.998;2023-03-31T16:56:27;6.73;;;2.03;;
1885;SDS011;943;51.568;6.998;2023-03-31T16:58:54;5.97;;;1.77;;
1885;SDS011;943;51.568;6.998;2023-03-31T17:01:22;5.90;;;1.80;;
1885;SDS011;943;51.568;6.998;2023-03-31T17:03:51;4.47;;;1.73;;
1885;SDS011;943;51.568;6.998;2023-03-31T17:06:20;5.90;;;1.50;;
1885;SDS011;943;51.568;6.998;2023-03-31T17:08:48;2.83;;;1.33;;
1885;SDS011;943;51.568;6.998;2023-03-31T17:11:16;4.30;;;1.63;;
1885;SDS011;943;51.568;6.998;2023-03-31T17:13:44;4.20;;;1.60;;
1885;SDS011;943;51.568;6.998;2023-03-31T17:16:13;3.87;;;2.03;;
1885;SDS011;943;51.568;6.998;2023-03-31T17:18:54;3.57;;;2.10;;
1885;SDS011;943;51.568;6.998;2023-03-31T17:21:22;3.30;;;1.60;;
1885;SDS011;943;51.568;6.998;2023-03-31T17:23:51;5.20;;;1.97;;
1885;SDS011;943;51.568;6.998;2023-03-31T17:26:20;7.43;;;2.10;;
1885;SDS011;943;51.568;6.998;2023-03-31T17:28:47;8.93;;;2.67;;
1885;SDS011;943;51.568;6.998;2023-03-31T17:31:17;7.20;;;2.30;;
1885;SDS011;943;51.568;6.998;2023-03-31T17:33:47;4.80;;;2.37;;
1885;SDS011;943;51.568;6.998;2023-03-31T17:36:15;6.27;;;2.10;;
1885;SDS011;943;51.568;6.998;2023-03-31T17:38:44;11.20;;;4.40;;
1885;SDS011;943;51.568;6.998;2023-03-31T17:41:12;5.43;;;2.40;;
1885;SDS011;943;51.568;6.998;2023-03-31T17:43:44;4.30;;;1.70;;
1885;SDS011;943;51.568;6.998;2023-03-31T17:46:14;3.37;;;1.57;;
1885;SDS011;943;51.568;6.998;2023-03-31T17:48:44;8.07;;;1.60;;
1885;SDS011;943;51.568;6.998;2023-03-31T17:51:14;4.63;;;2.07;;
1885;SDS011;943;51.568;6.998;2023-03-31T17:53:46;7.67;;;1.87;;
1885;SDS011;943;51.568;6.998;2023-03-31T17:56:16;4.70;;;1.73;;
1885;SDS011;943;51.568;6.998;2023-03-31T17:58:44;7.50;;;2.30;;
1885;SDS011;943;51.568;6.998;2023-03-31T18:01:13;6.83;;;2.63;;
1885;SDS011;943;51.568;6.998;2023-03-31T18:03:41;7.10;;;3.17;;
1885;SDS011;943;51.568;6.998;2023-03-31T18:06:11;7.37;;;2.07;;
1885;SDS011;943;51.568;6.998;2023-03-31T18:08:40;9.53;;;2.53;;
1885;SDS011;943;51.568;6.998;2023-03-31T18:11:09;6.20;;;3.00;;
1885;SDS011;943;51.568;6.998;2023-03-31T18:13:38;8.07;;;2.60;;
1885;SDS011;943;51.568;6.998;2023-03-31T18:16:07;7.30;;;2.73;;
1885;SDS011;943;51.568;6.998;2023-03-31T18:18:38;4.70;;;2.33;;
1885;SDS011;943;51.568;6.998;2023-03-31T18:21:09;7.30;;;2.73;;
1885;SDS011;943;51.568;6.998;2023-03-31T18:23:39;5.70;;;2.00;;
1885;SDS011;943;51.568;6.998;2023-03-31T18:26:08;5.90;;;2.17;;
1885;SDS011;943;51.568;6.998;2023-03-31T18:28:39;5.23;;;2.10;;
1885;SDS011;943;51.568;6.998;2023-03-31T18:31:07;6.10;;;2.30;;
1885;SDS011;943;51.568;6.998;2023-03-31T18:33:38;4.47;;;2.00;;
1885;SDS011;943;51.568;6.998;2023-03-31T18:36:07;4.80;;;2.10;;
1885;SDS011;943;51.568;6.998;2023-03-31T18:38:46;3.90;;;1.90;;
1885;SDS011;943;51.568;6.998;2023-03-31T18:41:16;4.83;;;2.07;;
1885;SDS011;943;51.568;6.998;2023-03-31T18:43:45;9.23;;;2.43;;
1885;SDS011;943;51.568;6.998;2023-03-31T18:46:13;4.97;;;2.40;;
1885;SDS011;943;51.568;6.998;2023-03-31T18:48:41;7.47;;;2.23;;
1885;SDS011;943;51.568;6.998;2023-03-31T18:51:09;6.30;;;2.20;;
1885;SDS011;943;51.568;6.998;2023-03-31T18:53:39;6.30;;;2.60;;
1885;SDS011;943;51.568;6.998;2023-03-31T18:56:07;5.97;;;2.10;;
1885;SDS011;943;51.568;6.998;2023-03-31T18:58:35;4.10;;;1.67;;
1885;SDS011;943;51.568;6.998;2023-03-31T19:01:04;8.17;;;2.30;;
1885;SDS011;943;51.568;6.998;2023-03-31T19:03:32;5.77;;;1.63;;
1885;SDS011;943;51.568;6.998;2023-03-31T19:06:05;5.70;;;2.47;;
1885;SDS011;943;51.568;6.998;2023-03-31T19:08:36;3.30;;;1.30;;
1885;SDS011;943;51.568;6.998;2023-03-31T19:11:06;4.33;;;1.53;;
1885;SDS011;943;51.568;6.998;2023-03-31T19:13:41;5.97;;;1.50;;
1885;SDS011;943;51.568;6.998;2023-03-31T19:16:10;4.53;;;1.60;;
1885;SDS011;943;51.568;6.998;2023-03-31T19:18:40;8.10;;;2.57;;
1885;SDS011;943;51.568;6.998;2023-03-31T19:21:09;3.67;;;1.70;;